sensor_id;sensor_type;location;lat;lon;timestamp;temperature;humidity
22450;DHT22;11392;57.390;-2.468;2022-07-12T00:01:57;18.90;99.90
22450;DHT22;11392;57.390;-2.468;2022-07-12T00:04:24;18.80;99.90
22450;DHT22;11392;57.390;-2.468;2022-07-12T00:06:51;18.80;99.90
22450;DHT22;11392;57.390;-2.468;2022-07-12T00:09:18;18.80;99.90
22450;DHT22;11392;57.390;-2.468;2022-07-12T00:11:45;18.90;99.90
22450;DHT22;11392;57.390;-2.468;2022-07-12T00:14:13;18.90;99.90
22450;DHT22;11392;57.390;-2.468;2022-07-12T00:16:40;18.90;99.90
22450;DHT22;11392;57.390;-2.468;2022-07-12T00:19:07;18.90;99.90
22450;DHT22;11392;57.390;-2.468;2022-07-12T00:21:35;18.80;99.90
22450;DHT22;11392;57.390;-2.468;2022-07-12T00:24:02;18.80;99.90
22450;DHT22;11392;57.390;-2.468;2022-07-12T00:26:29;18.80;99.90
22450;DHT22;11392;57.390;-2.468;2022-07-12T00:28:56;18.80;99.90
22450;DHT22;11392;57.390;-2.468;2022-07-12T00:31:24;18.80;99.90
22450;DHT22;11392;57.390;-2.468;2022-07-12T00:33:51;18.70;99.90
22450;DHT22;11392;57.390;-2.468;2022-07-12T00:36:19;18.70;99.90
22450;DHT22;11392;57.390;-2.468;2022-07-12T00:38:47;18.70;99.90
22450;DHT22;11392;57.390;-2.468;2022-07-12T00:41:14;18.70;99.90
22450;DHT22;11392;57.390;-2.468;2022-07-12T00:43:41;18.70;99.90
22450;DHT22;11392;57.390;-2.468;2022-07-12T00:46:09;18.70;99.90
22450;DHT22;11392;57.390;-2.468;2022-07-12T00:48:37;18.70;99.90
22450;DHT22;11392;57.390;-2.468;2022-07-12T00:51:04;18.60;99.90
22450;DHT22;11392;57.390;-2.468;2022-07-12T00:53:31;18.60;99.90
22450;DHT22;11392;57.390;-2.468;2022-07-12T00:55:58;18.60;99.90
22450;DHT22;11392;57.390;-2.468;2022-07-12T00:58:27;18.60;99.90
22450;DHT22;11392;57.390;-2.468;2022-07-12T01:00:58;18.50;99.90
22450;DHT22;11392;57.390;-2.468;2022-07-12T01:03:26;18.40;99.90
22450;DHT22;11392;57.390;-2.468;2022-07-12T01:05:55;18.30;99.90
22450;DHT22;11392;57.390;-2.468;2022-07-12T01:08:23;18.20;99.90
22450;DHT22;11392;57.390;-2.468;2022-07-12T01:10:50;18.10;99.90
22450;DHT22;11392;57.390;-2.468;2022-07-12T01:13:17;18.00;99.90
22450;DHT22;11392;57.390;-2.468;2022-07-12T01:15:46;17.90;99.90
22450;DHT22;11392;57.390;-2.468;2022-07-12T01:18:14;17.70;99.90
22450;DHT22;11392;57.390;-2.468;2022-07-12T01:20:43;17.60;99.90
22450;DHT22;11392;57.390;-2.468;2022-07-12T01:23:11;17.50;99.90
22450;DHT22;11392;57.390;-2.468;2022-07-12T01:25:38;17.40;99.90
22450;DHT22;11392;57.390;-2.468;2022-07-12T01:28:06;17.30;99.90
22450;DHT22;11392;57.390;-2.468;2022-07-12T01:30:33;17.20;99.90
22450;DHT22;11392;57.390;-2.468;2022-07-12T01:33:00;17.10;99.90
22450;DHT22;11392;57.390;-2.468;2022-07-12T01:35:28;17.10;99.90
22450;DHT22;11392;57.390;-2.468;2022-07-12T01:37:55;17.00;99.90
22450;DHT22;11392;57.390;-2.468;2022-07-12T01:40:23;16.90;99.90
22450;DHT22;11392;57.390;-2.468;2022-07-12T01:42:50;16.90;99.90
22450;DHT22;11392;57.390;-2.468;2022-07-12T01:45:19;16.80;99.90
22450;DHT22;11392;57.390;-2.468;2022-07-12T01:47:46;16.80;99.90
22450;DHT22;11392;57.390;-2.468;2022-07-12T01:50:13;16.80;99.90
22450;DHT22;11392;57.390;-2.468;2022-07-12T01:52:41;16.70;99.90
22450;DHT22;11392;57.390;-2.468;2022-07-12T01:55:09;16.70;99.90
22450;DHT22;11392;57.390;-2.468;2022-07-12T01:57:38;16.70;99.90
22450;DHT22;11392;57.390;-2.468;2022-07-12T02:00:08;16.70;99.90
22450;DHT22;11392;57.390;-2.468;2022-07-12T02:02:35;16.60;99.90
22450;DHT22;11392;57.390;-2.468;2022-07-12T02:05:03;16.60;99.90
22450;DHT22;11392;57.390;-2.468;2022-07-12T02:07:31;16.60;99.90
22450;DHT22;11392;57.390;-2.468;2022-07-12T02:09:58;16.70;99.90
22450;DHT22;11392;57.390;-2.468;2022-07-12T02:12:25;16.70;99.90
22450;DHT22;11392;57.390;-2.468;2022-07-12T02:14:52;16.70;99.90
22450;DHT22;11392;57.390;-2.468;2022-07-12T02:17:19;16.50;99.90
22450;DHT22;11392;57.390;-2.468;2022-07-12T02:19:46;16.50;99.90
22450;DHT22;11392;57.390;-2.468;2022-07-12T02:22:13;16.40;99.90
22450;DHT22;11392;57.390;-2.468;2022-07-12T02:24:40;16.40;99.90
22450;DHT22;11392;57.390;-2.468;2022-07-12T02:27:07;16.50;99.90
22450;DHT22;11392;57.390;-2.468;2022-07-12T02:29:35;16.60;99.90
22450;DHT22;11392;57.390;-2.468;2022-07-12T02:32:05;16.60;99.90
22450;DHT22;11392;57.390;-2.468;2022-07-12T02:34:32;16.70;99.90
22450;DHT22;11392;57.390;-2.468;2022-07-12T02:36:59;16.70;99.90
22450;DHT22;11392;57.390;-2.468;2022-07-12T02:39:26;16.70;99.90
22450;DHT22;11392;57.390;-2.468;2022-07-12T02:41:54;16.80;99.90
22450;DHT22;11392;57.390;-2.468;2022-07-12T02:44:24;16.80;99.90
22450;DHT22;11392;57.390;-2.468;2022-07-12T02:46:51;16.90;99.90
22450;DHT22;11392;57.390;-2.468;2022-07-12T02:49:18;16.90;99.90
22450;DHT22;11392;57.390;-2.468;2022-07-12T02:51:46;16.90;99.90
22450;DHT22;11392;57.390;-2.468;2022-07-12T02:54:12;17.00;99.90
22450;DHT22;11392;57.390;-2.468;2022-07-12T02:56:39;17.00;99.90
22450;DHT22;11392;57.390;-2.468;2022-07-12T02:59:06;17.10;99.90
22450;DHT22;11392;57.390;-2.468;2022-07-12T03:01:33;17.10;99.90
22450;DHT22;11392;57.390;-2.468;2022-07-12T03:04:00;17.10;99.90
22450;DHT22;11392;57.390;-2.468;2022-07-12T03:06:28;17.10;99.90
22450;DHT22;11392;57.390;-2.468;2022-07-12T03:08:55;17.10;99.90
22450;DHT22;11392;57.390;-2.468;2022-07-12T03:11:22;17.10;99.90
22450;DHT22;11392;57.390;-2.468;2022-07-12T03:13:49;17.20;99.90
22450;DHT22;11392;57.390;-2.468;2022-07-12T03:16:16;17.30;99.90
22450;DHT22;11392;57.390;-2.468;2022-07-12T03:18:44;17.30;99.90
22450;DHT22;11392;57.390;-2.468;2022-07-12T03:21:11;17.40;99.90
22450;DHT22;11392;57.390;-2.468;2022-07-12T03:23:38;17.40;99.90
22450;DHT22;11392;57.390;-2.468;2022-07-12T03:26:07;17.50;99.90
22450;DHT22;11392;57.390;-2.468;2022-07-12T03:28:34;17.50;99.90
22450;DHT22;11392;57.390;-2.468;2022-07-12T03:31:01;17.50;99.90
22450;DHT22;11392;57.390;-2.468;2022-07-12T03:33:28;17.50;99.90
22450;DHT22;11392;57.390;-2.468;2022-07-12T03:35:59;17.50;99.90
22450;DHT22;11392;57.390;-2.468;2022-07-12T03:38:26;17.60;99.90
22450;DHT22;11392;57.390;-2.468;2022-07-12T03:40:54;17.60;99.90
22450;DHT22;11392;57.390;-2.468;2022-07-12T03:43:21;17.60;99.90
22450;DHT22;11392;57.390;-2.468;2022-07-12T03:45:48;17.60;99.90
22450;DHT22;11392;57.390;-2.468;2022-07-12T03:48:15;17.70;99.90
22450;DHT22;11392;57.390;-2.468;2022-07-12T03:50:42;17.70;99.90
22450;DHT22;11392;57.390;-2.468;2022-07-12T03:53:09;17.60;99.90
22450;DHT22;11392;57.390;-2.468;2022-07-12T03:55:36;17.70;99.90
22450;DHT22;11392;57.390;-2.468;2022-07-12T03:58:03;17.70;99.90
22450;DHT22;11392;57.390;-2.468;2022-07-12T04:00:30;17.60;99.90
22450;DHT22;11392;57.390;-2.468;2022-07-12T04:02:57;17.60;99.90
22450;DHT22;11392;57.390;-2.468;2022-07-12T04:05:24;17.60;99.90
22450;DHT22;11392;57.390;-2.468;2022-07-12T04:07:54;17.50;99.90
22450;DHT22;11392;57.390;-2.468;2022-07-12T04:10:21;17.50;99.90
22450;DHT22;11392;57.390;-2.468;2022-07-12T04:12:48;17.40;99.90
22450;DHT22;11392;57.390;-2.468;2022-07-12T04:15:17;17.40;99.90
22450;DHT22;11392;57.390;-2.468;2022-07-12T04:17:43;17.30;99.90
22450;DHT22;11392;57.390;-2.468;2022-07-12T04:20:11;17.30;99.90
22450;DHT22;11392;57.390;-2.468;2022-07-12T04:22:38;17.30;99.90
22450;DHT22;11392;57.390;-2.468;2022-07-12T04:25:07;17.30;99.90
22450;DHT22;11392;57.390;-2.468;2022-07-12T04:27:34;17.20;99.90
22450;DHT22;11392;57.390;-2.468;2022-07-12T04:30:02;17.20;99.90
22450;DHT22;11392;57.390;-2.468;2022-07-12T04:32:30;17.10;99.90
22450;DHT22;11392;57.390;-2.468;2022-07-12T04:34:57;17.20;99.90
22450;DHT22;11392;57.390;-2.468;2022-07-12T04:37:24;17.30;99.90
22450;DHT22;11392;57.390;-2.468;2022-07-12T04:39:51;17.30;99.90
22450;DHT22;11392;57.390;-2.468;2022-07-12T04:42:18;17.30;99.90
22450;DHT22;11392;57.390;-2.468;2022-07-12T04:44:45;17.30;99.90
22450;DHT22;11392;57.390;-2.468;2022-07-12T04:47:12;17.40;99.90
22450;DHT22;11392;57.390;-2.468;2022-07-12T04:49:39;17.40;99.90
22450;DHT22;11392;57.390;-2.468;2022-07-12T04:52:06;17.50;99.90
22450;DHT22;11392;57.390;-2.468;2022-07-12T04:54:33;17.50;99.90
22450;DHT22;11392;57.390;-2.468;2022-07-12T04:57:00;17.60;99.90
22450;DHT22;11392;57.390;-2.468;2022-07-12T04:59:27;17.60;99.90
22450;DHT22;11392;57.390;-2.468;2022-07-12T05:01:54;17.70;99.90
22450;DHT22;11392;57.390;-2.468;2022-07-12T05:04:21;17.80;99.90
22450;DHT22;11392;57.390;-2.468;2022-07-12T05:06:49;17.90;99.90
22450;DHT22;11392;57.390;-2.468;2022-07-12T05:09:16;17.90;99.90
22450;DHT22;11392;57.390;-2.468;2022-07-12T05:11:44;17.90;99.90
22450;DHT22;11392;57.390;-2.468;2022-07-12T05:14:11;17.90;99.90
22450;DHT22;11392;57.390;-2.468;2022-07-12T05:16:38;17.90;99.90
22450;DHT22;11392;57.390;-2.468;2022-07-12T05:19:05;18.00;99.90
22450;DHT22;11392;57.390;-2.468;2022-07-12T05:21:32;18.00;99.90
22450;DHT22;11392;57.390;-2.468;2022-07-12T05:24:02;18.10;99.90
22450;DHT22;11392;57.390;-2.468;2022-07-12T05:26:30;18.10;99.90
22450;DHT22;11392;57.390;-2.468;2022-07-12T05:28:58;18.10;99.90
22450;DHT22;11392;57.390;-2.468;2022-07-12T05:31:25;18.20;99.90
22450;DHT22;11392;57.390;-2.468;2022-07-12T05:33:53;18.30;99.90
22450;DHT22;11392;57.390;-2.468;2022-07-12T05:36:20;18.40;99.90
22450;DHT22;11392;57.390;-2.468;2022-07-12T05:38:48;18.50;99.90
22450;DHT22;11392;57.390;-2.468;2022-07-12T05:41:15;18.50;99.90
22450;DHT22;11392;57.390;-2.468;2022-07-12T05:43:42;18.50;99.90
22450;DHT22;11392;57.390;-2.468;2022-07-12T05:46:10;18.60;99.90
22450;DHT22;11392;57.390;-2.468;2022-07-12T05:48:38;18.60;99.90
22450;DHT22;11392;57.390;-2.468;2022-07-12T05:51:05;18.60;99.90
22450;DHT22;11392;57.390;-2.468;2022-07-12T05:53:51;18.70;99.90
22450;DHT22;11392;57.390;-2.468;2022-07-12T05:56:18;18.70;99.90
22450;DHT22;11392;57.390;-2.468;2022-07-12T05:58:45;18.80;99.90
22450;DHT22;11392;57.390;-2.468;2022-07-12T06:01:12;18.80;99.90
22450;DHT22;11392;57.390;-2.468;2022-07-12T06:03:39;18.80;99.90
22450;DHT22;11392;57.390;-2.468;2022-07-12T06:06:06;18.90;99.90
22450;DHT22;11392;57.390;-2.468;2022-07-12T06:08:33;18.90;99.90
22450;DHT22;11392;57.390;-2.468;2022-07-12T06:11:00;19.00;99.90
22450;DHT22;11392;57.390;-2.468;2022-07-12T06:13:27;19.00;99.90
22450;DHT22;11392;57.390;-2.468;2022-07-12T06:15:55;19.10;99.90
22450;DHT22;11392;57.390;-2.468;2022-07-12T06:18:22;19.20;99.90
22450;DHT22;11392;57.390;-2.468;2022-07-12T06:20:49;19.20;99.90
22450;DHT22;11392;57.390;-2.468;2022-07-12T06:23:17;19.20;99.90
22450;DHT22;11392;57.390;-2.468;2022-07-12T06:25:44;19.30;99.90
22450;DHT22;11392;57.390;-2.468;2022-07-12T06:28:19;19.40;99.90
22450;DHT22;11392;57.390;-2.468;2022-07-12T06:30:46;19.50;99.90
22450;DHT22;11392;57.390;-2.468;2022-07-12T06:33:13;19.60;99.90
22450;DHT22;11392;57.390;-2.468;2022-07-12T06:35:40;19.60;99.90
22450;DHT22;11392;57.390;-2.468;2022-07-12T06:38:08;19.50;99.90
22450;DHT22;11392;57.390;-2.468;2022-07-12T06:40:34;19.50;99.90
22450;DHT22;11392;57.390;-2.468;2022-07-12T06:43:02;19.50;99.90
22450;DHT22;11392;57.390;-2.468;2022-07-12T06:45:29;19.40;99.90
22450;DHT22;11392;57.390;-2.468;2022-07-12T06:47:56;19.40;99.90
22450;DHT22;11392;57.390;-2.468;2022-07-12T06:50:23;19.50;99.90
22450;DHT22;11392;57.390;-2.468;2022-07-12T06:52:50;19.50;99.90
22450;DHT22;11392;57.390;-2.468;2022-07-12T06:55:17;19.50;99.90
22450;DHT22;11392;57.390;-2.468;2022-07-12T06:57:44;19.50;99.90
22450;DHT22;11392;57.390;-2.468;2022-07-12T07:00:11;19.50;99.90
22450;DHT22;11392;57.390;-2.468;2022-07-12T07:02:39;19.50;99.90
22450;DHT22;11392;57.390;-2.468;2022-07-12T07:05:07;19.60;99.90
22450;DHT22;11392;57.390;-2.468;2022-07-12T07:07:34;19.60;99.90
22450;DHT22;11392;57.390;-2.468;2022-07-12T07:10:01;19.60;99.90
22450;DHT22;11392;57.390;-2.468;2022-07-12T07:12:28;19.60;99.90
22450;DHT22;11392;57.390;-2.468;2022-07-12T07:14:55;19.70;99.90
22450;DHT22;11392;57.390;-2.468;2022-07-12T07:17:22;19.70;99.90
22450;DHT22;11392;57.390;-2.468;2022-07-12T07:19:49;19.70;99.90
22450;DHT22;11392;57.390;-2.468;2022-07-12T07:22:16;19.80;99.90
22450;DHT22;11392;57.390;-2.468;2022-07-12T07:24:43;19.80;99.90
22450;DHT22;11392;57.390;-2.468;2022-07-12T07:27:10;19.80;99.90
22450;DHT22;11392;57.390;-2.468;2022-07-12T07:29:37;19.80;99.90
22450;DHT22;11392;57.390;-2.468;2022-07-12T07:32:23;19.80;99.90
22450;DHT22;11392;57.390;-2.468;2022-07-12T07:34:50;19.90;99.90
22450;DHT22;11392;57.390;-2.468;2022-07-12T07:37:17;20.00;99.90
22450;DHT22;11392;57.390;-2.468;2022-07-12T07:39:44;20.00;99.90
22450;DHT22;11392;57.390;-2.468;2022-07-12T07:42:11;20.00;99.90
22450;DHT22;11392;57.390;-2.468;2022-07-12T07:44:38;20.10;99.90
22450;DHT22;11392;57.390;-2.468;2022-07-12T07:47:25;20.10;99.90
22450;DHT22;11392;57.390;-2.468;2022-07-12T07:49:55;20.00;99.90
22450;DHT22;11392;57.390;-2.468;2022-07-12T07:52:23;20.00;99.90
22450;DHT22;11392;57.390;-2.468;2022-07-12T07:54:50;19.90;99.90
22450;DHT22;11392;57.390;-2.468;2022-07-12T07:57:16;19.90;99.90
22450;DHT22;11392;57.390;-2.468;2022-07-12T07:59:43;19.90;99.90
22450;DHT22;11392;57.390;-2.468;2022-07-12T08:02:13;19.90;99.90
22450;DHT22;11392;57.390;-2.468;2022-07-12T08:04:40;19.80;99.90
22450;DHT22;11392;57.390;-2.468;2022-07-12T08:07:07;19.80;99.90
22450;DHT22;11392;57.390;-2.468;2022-07-12T08:09:34;19.70;99.90
22450;DHT22;11392;57.390;-2.468;2022-07-12T08:12:01;19.70;99.90
22450;DHT22;11392;57.390;-2.468;2022-07-12T08:14:28;19.60;99.90
22450;DHT22;11392;57.390;-2.468;2022-07-12T08:16:56;19.70;99.90
22450;DHT22;11392;57.390;-2.468;2022-07-12T08:19:23;19.60;99.90
22450;DHT22;11392;57.390;-2.468;2022-07-12T08:21:50;19.70;99.90
22450;DHT22;11392;57.390;-2.468;2022-07-12T08:24:17;19.70;99.90
22450;DHT22;11392;57.390;-2.468;2022-07-12T08:26:44;19.70;99.90
22450;DHT22;11392;57.390;-2.468;2022-07-12T08:29:10;19.70;99.90
22450;DHT22;11392;57.390;-2.468;2022-07-12T08:31:38;19.80;99.90
22450;DHT22;11392;57.390;-2.468;2022-07-12T08:34:05;20.00;99.90
22450;DHT22;11392;57.390;-2.468;2022-07-12T08:36:31;20.00;99.90
22450;DHT22;11392;57.390;-2.468;2022-07-12T08:39:00;20.20;99.90
22450;DHT22;11392;57.390;-2.468;2022-07-12T08:41:27;20.50;99.90
22450;DHT22;11392;57.390;-2.468;2022-07-12T08:43:54;20.80;99.90
22450;DHT22;11392;57.390;-2.468;2022-07-12T08:46:22;21.10;99.90
22450;DHT22;11392;57.390;-2.468;2022-07-12T08:48:49;21.50;99.90
22450;DHT22;11392;57.390;-2.468;2022-07-12T08:51:20;21.90;99.90
22450;DHT22;11392;57.390;-2.468;2022-07-12T08:53:47;22.40;99.90
22450;DHT22;11392;57.390;-2.468;2022-07-12T08:56:31;22.90;99.90
22450;DHT22;11392;57.390;-2.468;2022-07-12T08:59:19;23.20;99.90
22450;DHT22;11392;57.390;-2.468;2022-07-12T09:01:48;23.70;99.90
22450;DHT22;11392;57.390;-2.468;2022-07-12T09:04:21;23.50;99.90
22450;DHT22;11392;57.390;-2.468;2022-07-12T09:06:49;23.50;99.90
22450;DHT22;11392;57.390;-2.468;2022-07-12T09:09:33;23.50;99.90
22450;DHT22;11392;57.390;-2.468;2022-07-12T09:12:00;23.40;99.90
22450;DHT22;11392;57.390;-2.468;2022-07-12T09:14:27;23.50;99.90
22450;DHT22;11392;57.390;-2.468;2022-07-12T09:17:02;23.50;99.90
22450;DHT22;11392;57.390;-2.468;2022-07-12T09:19:30;23.20;99.90
22450;DHT22;11392;57.390;-2.468;2022-07-12T09:21:57;22.90;99.90
22450;DHT22;11392;57.390;-2.468;2022-07-12T09:24:25;22.80;99.90
22450;DHT22;11392;57.390;-2.468;2022-07-12T09:26:56;22.70;99.90
22450;DHT22;11392;57.390;-2.468;2022-07-12T09:29:24;22.80;99.90
22450;DHT22;11392;57.390;-2.468;2022-07-12T09:31:52;22.80;99.90
22450;DHT22;11392;57.390;-2.468;2022-07-12T09:34:38;22.90;99.90
22450;DHT22;11392;57.390;-2.468;2022-07-12T09:37:25;23.00;99.90
22450;DHT22;11392;57.390;-2.468;2022-07-12T09:39:54;23.00;99.90
22450;DHT22;11392;57.390;-2.468;2022-07-12T09:42:21;23.10;99.90
22450;DHT22;11392;57.390;-2.468;2022-07-12T09:44:55;23.10;99.90
22450;DHT22;11392;57.390;-2.468;2022-07-12T09:47:22;23.10;99.90
22450;DHT22;11392;57.390;-2.468;2022-07-12T09:49:51;22.90;99.90
22450;DHT22;11392;57.390;-2.468;2022-07-12T09:52:24;22.80;99.90
22450;DHT22;11392;57.390;-2.468;2022-07-12T09:54:53;22.90;99.90
22450;DHT22;11392;57.390;-2.468;2022-07-12T09:57:31;22.90;99.90
22450;DHT22;11392;57.390;-2.468;2022-07-12T10:00:01;22.90;99.90
22450;DHT22;11392;57.390;-2.468;2022-07-12T10:02:31;23.10;99.90
22450;DHT22;11392;57.390;-2.468;2022-07-12T10:05:00;23.50;99.90
22450;DHT22;11392;57.390;-2.468;2022-07-12T10:07:30;23.70;99.90
22450;DHT22;11392;57.390;-2.468;2022-07-12T10:09:58;24.00;99.90
22450;DHT22;11392;57.390;-2.468;2022-07-12T10:12:25;24.40;99.90
22450;DHT22;11392;57.390;-2.468;2022-07-12T10:15:00;24.80;99.90
22450;DHT22;11392;57.390;-2.468;2022-07-12T10:17:29;24.90;99.90
22450;DHT22;11392;57.390;-2.468;2022-07-12T10:20:16;24.70;99.90
22450;DHT22;11392;57.390;-2.468;2022-07-12T10:22:44;24.70;99.90
22450;DHT22;11392;57.390;-2.468;2022-07-12T10:25:31;24.60;99.90
22450;DHT22;11392;57.390;-2.468;2022-07-12T10:27:59;24.70;99.90
22450;DHT22;11392;57.390;-2.468;2022-07-12T10:30:26;24.70;99.90
22450;DHT22;11392;57.390;-2.468;2022-07-12T10:32:56;24.90;99.90
22450;DHT22;11392;57.390;-2.468;2022-07-12T10:35:27;24.90;99.90
22450;DHT22;11392;57.390;-2.468;2022-07-12T10:38:15;25.00;99.90
22450;DHT22;11392;57.390;-2.468;2022-07-12T10:40:44;25.00;99.90
22450;DHT22;11392;57.390;-2.468;2022-07-12T10:43:16;24.90;99.90
22450;DHT22;11392;57.390;-2.468;2022-07-12T10:45:45;24.90;99.90
22450;DHT22;11392;57.390;-2.468;2022-07-12T10:58:38;24.60;99.90
22450;DHT22;11392;57.390;-2.468;2022-07-12T11:01:11;24.50;99.90
22450;DHT22;11392;57.390;-2.468;2022-07-12T11:03:43;24.50;99.90
22450;DHT22;11392;57.390;-2.468;2022-07-12T11:06:19;24.50;99.90
22450;DHT22;11392;57.390;-2.468;2022-07-12T11:09:08;24.40;99.90
22450;DHT22;11392;57.390;-2.468;2022-07-12T11:11:46;24.10;99.90
22450;DHT22;11392;57.390;-2.468;2022-07-12T11:14:28;24.00;99.90
22450;DHT22;11392;57.390;-2.468;2022-07-12T11:16:59;23.60;99.90
22450;DHT22;11392;57.390;-2.468;2022-07-12T11:19:31;23.50;99.90
22450;DHT22;11392;57.390;-2.468;2022-07-12T11:21:58;23.60;99.90
22450;DHT22;11392;57.390;-2.468;2022-07-12T11:24:30;23.80;99.90
22450;DHT22;11392;57.390;-2.468;2022-07-12T11:26:57;23.60;99.90
22450;DHT22;11392;57.390;-2.468;2022-07-12T11:29:27;23.70;99.90
22450;DHT22;11392;57.390;-2.468;2022-07-12T11:32:04;23.90;99.90
22450;DHT22;11392;57.390;-2.468;2022-07-12T11:34:38;23.80;99.90
22450;DHT22;11392;57.390;-2.468;2022-07-12T11:37:05;23.80;99.90
22450;DHT22;11392;57.390;-2.468;2022-07-12T11:39:40;24.00;99.90
22450;DHT22;11392;57.390;-2.468;2022-07-12T11:42:08;24.10;99.90
22450;DHT22;11392;57.390;-2.468;2022-07-12T11:44:46;24.20;99.90
22450;DHT22;11392;57.390;-2.468;2022-07-12T11:47:15;24.50;99.90
22450;DHT22;11392;57.390;-2.468;2022-07-12T11:49:50;25.40;99.90
22450;DHT22;11392;57.390;-2.468;2022-07-12T11:52:22;26.30;99.90
22450;DHT22;11392;57.390;-2.468;2022-07-12T11:54:51;26.80;99.90
22450;DHT22;11392;57.390;-2.468;2022-07-12T11:57:22;27.20;99.90
22450;DHT22;11392;57.390;-2.468;2022-07-12T11:59:50;27.90;99.90
22450;DHT22;11392;57.390;-2.468;2022-07-12T12:02:17;28.30;99.90
22450;DHT22;11392;57.390;-2.468;2022-07-12T12:04:50;28.60;99.90
22450;DHT22;11392;57.390;-2.468;2022-07-12T12:07:19;28.90;99.90
22450;DHT22;11392;57.390;-2.468;2022-07-12T12:12:49;29.30;99.90
22450;DHT22;11392;57.390;-2.468;2022-07-12T12:17:54;29.80;99.90
22450;DHT22;11392;57.390;-2.468;2022-07-12T12:20:27;29.60;99.90
22450;DHT22;11392;57.390;-2.468;2022-07-12T12:22:56;30.00;99.90
22450;DHT22;11392;57.390;-2.468;2022-07-12T12:25:25;30.10;99.90
22450;DHT22;11392;57.390;-2.468;2022-07-12T12:27:57;30.20;99.90
22450;DHT22;11392;57.390;-2.468;2022-07-12T12:30:54;30.20;99.90
22450;DHT22;11392;57.390;-2.468;2022-07-12T12:33:42;30.60;99.90
22450;DHT22;11392;57.390;-2.468;2022-07-12T12:38:44;30.30;99.90
22450;DHT22;11392;57.390;-2.468;2022-07-12T12:41:12;30.70;99.90
22450;DHT22;11392;57.390;-2.468;2022-07-12T12:43:40;30.60;99.90
22450;DHT22;11392;57.390;-2.468;2022-07-12T12:46:07;30.20;99.90
22450;DHT22;11392;57.390;-2.468;2022-07-12T12:48:36;30.20;99.90
22450;DHT22;11392;57.390;-2.468;2022-07-12T12:51:10;30.20;99.90
22450;DHT22;11392;57.390;-2.468;2022-07-12T12:53:39;30.40;99.90
22450;DHT22;11392;57.390;-2.468;2022-07-12T12:56:12;30.40;99.90
22450;DHT22;11392;57.390;-2.468;2022-07-12T12:58:40;30.20;99.90
22450;DHT22;11392;57.390;-2.468;2022-07-12T13:01:08;30.00;99.90
22450;DHT22;11392;57.390;-2.468;2022-07-12T13:03:35;29.90;99.90
22450;DHT22;11392;57.390;-2.468;2022-07-12T13:06:03;29.90;99.90
22450;DHT22;11392;57.390;-2.468;2022-07-12T13:08:31;29.50;99.90
22450;DHT22;11392;57.390;-2.468;2022-07-12T13:10:59;29.30;99.90
22450;DHT22;11392;57.390;-2.468;2022-07-12T13:13:45;29.50;99.90
22450;DHT22;11392;57.390;-2.468;2022-07-12T13:16:12;29.60;99.90
22450;DHT22;11392;57.390;-2.468;2022-07-12T13:18:39;29.90;99.90
22450;DHT22;11392;57.390;-2.468;2022-07-12T13:21:06;30.00;99.90
22450;DHT22;11392;57.390;-2.468;2022-07-12T13:23:33;30.20;99.90
22450;DHT22;11392;57.390;-2.468;2022-07-12T13:26:00;30.00;99.00
22450;DHT22;11392;57.390;-2.468;2022-07-12T13:28:28;30.40;99.90
22450;DHT22;11392;57.390;-2.468;2022-07-12T13:30:55;30.50;98.90
22450;DHT22;11392;57.390;-2.468;2022-07-12T13:33:22;30.20;97.90
22450;DHT22;11392;57.390;-2.468;2022-07-12T13:35:49;30.00;97.70
22450;DHT22;11392;57.390;-2.468;2022-07-12T13:38:17;30.40;98.80
22450;DHT22;11392;57.390;-2.468;2022-07-12T13:40:44;30.60;98.00
22450;DHT22;11392;57.390;-2.468;2022-07-12T13:43:11;30.70;99.90
22450;DHT22;11392;57.390;-2.468;2022-07-12T13:45:38;31.00;97.20
22450;DHT22;11392;57.390;-2.468;2022-07-12T13:48:06;31.10;94.10
22450;DHT22;11392;57.390;-2.468;2022-07-12T13:50:34;30.90;94.90
22450;DHT22;11392;57.390;-2.468;2022-07-12T13:53:01;30.90;96.80
22450;DHT22;11392;57.390;-2.468;2022-07-12T13:55:28;30.90;94.50
22450;DHT22;11392;57.390;-2.468;2022-07-12T13:57:58;31.30;97.60
22450;DHT22;11392;57.390;-2.468;2022-07-12T14:00:25;31.20;92.40
22450;DHT22;11392;57.390;-2.468;2022-07-12T14:02:52;31.10;94.80
22450;DHT22;11392;57.390;-2.468;2022-07-12T14:05:21;30.90;94.60
22450;DHT22;11392;57.390;-2.468;2022-07-12T14:07:49;30.80;92.50
22450;DHT22;11392;57.390;-2.468;2022-07-12T14:10:17;30.50;93.50
22450;DHT22;11392;57.390;-2.468;2022-07-12T14:12:44;30.30;95.00
22450;DHT22;11392;57.390;-2.468;2022-07-12T14:15:11;30.50;94.40
22450;DHT22;11392;57.390;-2.468;2022-07-12T14:17:43;30.60;96.50
22450;DHT22;11392;57.390;-2.468;2022-07-12T14:20:12;30.40;93.90
22450;DHT22;11392;57.390;-2.468;2022-07-12T14:22:39;30.60;95.00
22450;DHT22;11392;57.390;-2.468;2022-07-12T14:25:07;30.50;93.00
22450;DHT22;11392;57.390;-2.468;2022-07-12T14:27:36;30.40;91.40
22450;DHT22;11392;57.390;-2.468;2022-07-12T14:30:04;30.10;91.50
22450;DHT22;11392;57.390;-2.468;2022-07-12T14:32:33;30.20;94.60
22450;DHT22;11392;57.390;-2.468;2022-07-12T14:35:00;30.00;92.80
22450;DHT22;11392;57.390;-2.468;2022-07-12T14:37:27;29.80;92.60
22450;DHT22;11392;57.390;-2.468;2022-07-12T14:39:54;29.90;92.50
22450;DHT22;11392;57.390;-2.468;2022-07-12T14:42:22;30.50;93.90
22450;DHT22;11392;57.390;-2.468;2022-07-12T14:44:49;30.50;92.00
22450;DHT22;11392;57.390;-2.468;2022-07-12T14:47:20;29.90;90.00
22450;DHT22;11392;57.390;-2.468;2022-07-12T14:49:47;29.60;90.90
22450;DHT22;11392;57.390;-2.468;2022-07-12T14:52:15;29.40;91.60
22450;DHT22;11392;57.390;-2.468;2022-07-12T14:54:43;29.50;91.40
22450;DHT22;11392;57.390;-2.468;2022-07-12T14:57:11;29.30;90.30
22450;DHT22;11392;57.390;-2.468;2022-07-12T14:59:38;29.30;90.40
22450;DHT22;11392;57.390;-2.468;2022-07-12T15:02:05;30.00;91.00
22450;DHT22;11392;57.390;-2.468;2022-07-12T15:04:32;30.40;89.70
22450;DHT22;11392;57.390;-2.468;2022-07-12T15:07:00;30.70;89.70
22450;DHT22;11392;57.390;-2.468;2022-07-12T15:09:27;31.00;90.30
22450;DHT22;11392;57.390;-2.468;2022-07-12T15:11:54;31.20;90.10
22450;DHT22;11392;57.390;-2.468;2022-07-12T15:14:22;30.90;91.40
22450;DHT22;11392;57.390;-2.468;2022-07-12T15:16:49;30.90;90.30
22450;DHT22;11392;57.390;-2.468;2022-07-12T15:19:16;30.60;89.90
22450;DHT22;11392;57.390;-2.468;2022-07-12T15:21:43;30.70;90.30
22450;DHT22;11392;57.390;-2.468;2022-07-12T15:24:10;30.60;88.60
22450;DHT22;11392;57.390;-2.468;2022-07-12T15:26:38;30.60;92.00
22450;DHT22;11392;57.390;-2.468;2022-07-12T15:29:05;30.60;89.00
22450;DHT22;11392;57.390;-2.468;2022-07-12T15:31:32;30.80;87.80
22450;DHT22;11392;57.390;-2.468;2022-07-12T15:34:00;30.50;88.10
22450;DHT22;11392;57.390;-2.468;2022-07-12T15:36:27;30.30;90.00
22450;DHT22;11392;57.390;-2.468;2022-07-12T15:38:55;30.20;98.80
22450;DHT22;11392;57.390;-2.468;2022-07-12T15:41:22;29.90;96.30
22450;DHT22;11392;57.390;-2.468;2022-07-12T15:43:49;29.90;92.80